sensor_id;sensor_type;location;lat;lon;timestamp;pressure;altitude;pressure_sealevel;temperature;humidity
16595;BME280;8410;52.532;13.336;2023-02-15T00:01:36;102757.97;;;7.66;78.31
16595;BME280;8410;52.532;13.336;2023-02-15T00:04:05;102753.88;;;7.85;76.54
16595;BME280;8410;52.532;13.336;2023-02-15T00:06:34;102759.56;;;7.64;78.23
16595;BME280;8410;52.532;13.336;2023-02-15T00:09:02;102771.06;;;7.26;76.78
16595;BME280;8410;52.532;13.336;2023-02-15T00:11:29;102760.47;;;7.20;77.96
16595;BME280;8410;52.532;13.336;2023-02-15T00:14:20;102764.38;;;7.43;77.57
16595;BME280;8410;52.532;13.336;2023-02-15T00:16:50;102758.63;;;7.47;78.79
16595;BME280;8410;52.532;13.336;2023-02-15T00:19:19;102756.78;;;7.30;78.30
16595;BME280;8410;52.532;13.336;2023-02-15T00:21:48;102746.59;;;7.32;79.47
16595;BME280;8410;52.532;13.336;2023-02-15T00:24:17;102739.63;;;7.44;77.83
16595;BME280;8410;52.532;13.336;2023-02-15T00:26:46;102744.91;;;7.32;79.25
16595;BME280;8410;52.532;13.336;2023-02-15T00:29:15;102738.47;;;7.39;78.02
16595;BME280;8410;52.532;13.336;2023-02-15T00:31:45;102733.19;;;7.36;78.53
16595;BME280;8410;52.532;13.336;2023-02-15T00:34:14;102730.78;;;7.39;79.34
16595;BME280;8410;52.532;13.336;2023-02-15T00:36:45;102740.88;;;7.36;79.15
16595;BME280;8410;52.532;13.336;2023-02-15T00:39:15;102737.84;;;7.43;78.90
16595;BME280;8410;52.532;13.336;2023-02-15T00:41:45;102734.66;;;7.62;78.79
16595;BME280;8410;52.532;13.336;2023-02-15T00:44:13;102732.91;;;7.46;78.96
16595;BME280;8410;52.532;13.336;2023-02-15T00:46:41;102745.81;;;7.47;77.45
16595;BME280;8410;52.532;13.336;2023-02-15T00:49:11;102744.50;;;7.24;78.31
16595;BME280;8410;52.532;13.336;2023-02-15T00:51:42;102746.59;;;7.32;79.01
16595;BME280;8410;52.532;13.336;2023-02-15T00:54:15;102746.56;;;7.02;79.54
16595;BME280;8410;52.532;13.336;2023-02-15T00:56:43;102739.53;;;7.27;79.39
16595;BME280;8410;52.532;13.336;2023-02-15T00:59:10;102741.38;;;7.15;79.01
16595;BME280;8410;52.532;13.336;2023-02-15T01:01:38;102737.13;;;7.16;78.99
16595;BME280;8410;52.532;13.336;2023-02-15T01:04:06;102728.22;;;7.09;79.67
16595;BME280;8410;52.532;13.336;2023-02-15T01:06:34;102729.81;;;7.37;78.12
16595;BME280;8410;52.532;13.336;2023-02-15T01:09:02;102727.75;;;7.16;78.61
16595;BME280;8410;52.532;13.336;2023-02-15T01:11:30;102726.00;;;7.15;78.84
16595;BME280;8410;52.532;13.336;2023-02-15T01:13:58;102726.22;;;6.75;78.99
16595;BME280;8410;52.532;13.336;2023-02-15T01:16:27;102719.63;;;6.94;79.44
16595;BME280;8410;52.532;13.336;2023-02-15T01:18:55;102713.00;;;6.97;79.80
16595;BME280;8410;52.532;13.336;2023-02-15T01:21:24;102712.75;;;6.93;80.02
16595;BME280;8410;52.532;13.336;2023-02-15T01:23:54;102711.66;;;6.74;80.99
16595;BME280;8410;52.532;13.336;2023-02-15T01:26:21;102711.97;;;7.09;79.33
16595;BME280;8410;52.532;13.336;2023-02-15T01:28:49;102704.44;;;6.97;78.41
16595;BME280;8410;52.532;13.336;2023-02-15T01:31:18;102704.97;;;6.76;79.53
16595;BME280;8410;52.532;13.336;2023-02-15T01:33:47;102712.44;;;6.73;79.87
16595;BME280;8410;52.532;13.336;2023-02-15T01:36:15;102702.84;;;6.84;80.14
16595;BME280;8410;52.532;13.336;2023-02-15T01:38:43;102703.47;;;6.52;80.18
16595;BME280;8410;52.532;13.336;2023-02-15T01:41:13;102702.22;;;6.45;81.83
16595;BME280;8410;52.532;13.336;2023-02-15T01:43:55;102686.84;;;6.73;80.32
16595;BME280;8410;52.532;13.336;2023-02-15T01:46:27;102685.88;;;6.86;80.42
16595;BME280;8410;52.532;13.336;2023-02-15T01:49:02;102683.75;;;6.64;81.14
16595;BME280;8410;52.532;13.336;2023-02-15T01:51:33;102674.03;;;6.73;79.42
16595;BME280;8410;52.532;13.336;2023-02-15T01:54:05;102667.34;;;6.60;79.85
16595;BME280;8410;52.532;13.336;2023-02-15T01:56:39;102671.16;;;6.39;81.06
16595;BME280;8410;52.532;13.336;2023-02-15T01:59:09;102659.91;;;6.50;80.83
16595;BME280;8410;52.532;13.336;2023-02-15T02:01:39;102667.00;;;6.69;80.79
16595;BME280;8410;52.532;13.336;2023-02-15T02:04:10;102656.75;;;6.69;80.76
16595;BME280;8410;52.532;13.336;2023-02-15T02:06:41;102664.50;;;6.56;80.63
16595;BME280;8410;52.532;13.336;2023-02-15T02:09:08;102653.69;;;6.47;81.18
16595;BME280;8410;52.532;13.336;2023-02-15T02:11:38;102657.56;;;6.40;81.38
16595;BME280;8410;52.532;13.336;2023-02-15T02:14:06;102645.25;;;6.48;81.31
16595;BME280;8410;52.532;13.336;2023-02-15T02:16:40;102643.22;;;6.57;81.31
16595;BME280;8410;52.532;13.336;2023-02-15T02:19:32;102645.25;;;6.48;81.46
16595;BME280;8410;52.532;13.336;2023-02-15T02:22:24;102650.78;;;6.40;80.85
16595;BME280;8410;52.532;13.336;2023-02-15T02:25:12;102642.81;;;6.36;81.24
16595;BME280;8410;52.532;13.336;2023-02-15T02:27:47;102639.50;;;6.37;81.88
16595;BME280;8410;52.532;13.336;2023-02-15T02:30:37;102635.78;;;6.47;81.11
16595;BME280;8410;52.532;13.336;2023-02-15T02:33:36;102635.38;;;6.54;81.67
16595;BME280;8410;52.532;13.336;2023-02-15T02:36:14;102631.53;;;6.32;81.69
16595;BME280;8410;52.532;13.336;2023-02-15T02:38:52;102635.19;;;6.51;81.66
16595;BME280;8410;52.532;13.336;2023-02-15T02:41:31;102621.06;;;6.43;81.35
16595;BME280;8410;52.532;13.336;2023-02-15T02:44:05;102632.69;;;6.37;80.46
16595;BME280;8410;52.532;13.336;2023-02-15T02:46:38;102629.16;;;6.35;81.20
16595;BME280;8410;52.532;13.336;2023-02-15T02:49:08;102617.88;;;6.47;80.27
16595;BME280;8410;52.532;13.336;2023-02-15T02:51:35;102623.38;;;6.53;80.93
16595;BME280;8410;52.532;13.336;2023-02-15T02:54:05;102624.09;;;6.50;80.42
16595;BME280;8410;52.532;13.336;2023-02-15T02:56:37;102621.75;;;6.40;80.98
16595;BME280;8410;52.532;13.336;2023-02-15T02:59:10;102617.69;;;6.44;81.56
16595;BME280;8410;52.532;13.336;2023-02-15T03:01:43;102616.66;;;6.40;81.54
16595;BME280;8410;52.532;13.336;2023-02-15T03:04:15;102618.56;;;6.29;81.95
16595;BME280;8410;52.532;13.336;2023-02-15T03:06:48;102606.94;;;6.34;81.82
16595;BME280;8410;52.532;13.336;2023-02-15T03:09:22;102602.34;;;6.29;81.47
16595;BME280;8410;52.532;13.336;2023-02-15T03:12:01;102604.28;;;6.33;81.12
16595;BME280;8410;52.532;13.336;2023-02-15T03:14:29;102610.94;;;6.16;81.99
16595;BME280;8410;52.532;13.336;2023-02-15T03:16:58;102610.59;;;6.25;82.59
16595;BME280;8410;52.532;13.336;2023-02-15T03:19:28;102602.47;;;6.17;82.08
16595;BME280;8410;52.532;13.336;2023-02-15T03:22:01;102598.63;;;6.24;81.45
16595;BME280;8410;52.532;13.336;2023-02-15T03:24:37;102600.91;;;6.19;82.11
16595;BME280;8410;52.532;13.336;2023-02-15T03:27:12;102592.00;;;6.12;82.03
16595;BME280;8410;52.532;13.336;2023-02-15T03:29:45;102594.47;;;5.97;82.01
16595;BME280;8410;52.532;13.336;2023-02-15T03:32:15;102600.41;;;5.83;83.73
16595;BME280;8410;52.532;13.336;2023-02-15T03:34:44;102590.84;;;6.22;82.09
16595;BME280;8410;52.532;13.336;2023-02-15T03:37:15;102587.88;;;6.29;81.20
16595;BME280;8410;52.532;13.336;2023-02-15T03:39:50;102594.47;;;5.97;81.95
16595;BME280;8410;52.532;13.336;2023-02-15T03:42:24;102595.28;;;5.83;82.91
16595;BME280;8410;52.532;13.336;2023-02-15T03:44:56;102599.09;;;5.48;84.22
16595;BME280;8410;52.532;13.336;2023-02-15T03:47:27;102587.97;;;6.03;82.58
16595;BME280;8410;52.532;13.336;2023-02-15T03:50:00;102593.31;;;5.79;82.50
16595;BME280;8410;52.532;13.336;2023-02-15T03:52:31;102582.50;;;5.96;81.72
16595;BME280;8410;52.532;13.336;2023-02-15T03:54:59;102573.00;;;6.09;81.40
16595;BME280;8410;52.532;13.336;2023-02-15T03:57:28;102571.44;;;6.11;81.05
16595;BME280;8410;52.532;13.336;2023-02-15T04:00:15;102579.19;;;5.71;81.69
16595;BME280;8410;52.532;13.336;2023-02-15T04:03:10;102579.25;;;5.86;81.26
16595;BME280;8410;52.532;13.336;2023-02-15T04:05:42;102574.41;;;6.04;80.57
16595;BME280;8410;52.532;13.336;2023-02-15T04:08:10;102582.66;;;5.58;82.57
16595;BME280;8410;52.532;13.336;2023-02-15T04:10:38;102569.78;;;5.98;81.79
16595;BME280;8410;52.532;13.336;2023-02-15T04:13:24;102569.72;;;5.96;81.50
16595;BME280;8410;52.532;13.336;2023-02-15T04:15:56;102568.81;;;5.96;81.03
16595;BME280;8410;52.532;13.336;2023-02-15T04:18:32;102569.13;;;5.87;80.63
16595;BME280;8410;52.532;13.336;2023-02-15T04:21:19;102564.28;;;5.92;81.08
16595;BME280;8410;52.532;13.336;2023-02-15T04:24:05;102554.94;;;5.92;80.35
16595;BME280;8410;52.532;13.336;2023-02-15T04:26:50;102552.63;;;5.82;81.28
16595;BME280;8410;52.532;13.336;2023-02-15T04:29:20;102555.47;;;5.87;81.48
16595;BME280;8410;52.532;13.336;2023-02-15T04:31:48;102560.66;;;6.02;81.14
16595;BME280;8410;52.532;13.336;2023-02-15T04:34:16;102553.19;;;5.91;80.18
16595;BME280;8410;52.532;13.336;2023-02-15T04:36:45;102563.31;;;5.62;80.45
16595;BME280;8410;52.532;13.336;2023-02-15T04:39:14;102562.22;;;5.58;81.93
16595;BME280;8410;52.532;13.336;2023-02-15T04:41:42;102560.66;;;5.60;80.59
16595;BME280;8410;52.532;13.336;2023-02-15T04:44:10;102550.78;;;5.66;80.72
16595;BME280;8410;52.532;13.336;2023-02-15T04:46:37;102547.00;;;5.60;80.52
16595;BME280;8410;52.532;13.336;2023-02-15T04:49:05;102539.56;;;5.36;82.36
16595;BME280;8410;52.532;13.336;2023-02-15T04:51:32;102533.38;;;5.46;80.82
16595;BME280;8410;52.532;13.336;2023-02-15T04:54:01;102532.84;;;5.65;81.88
16595;BME280;8410;52.532;13.336;2023-02-15T04:56:29;102519.03;;;5.76;81.48
16595;BME280;8410;52.532;13.336;2023-02-15T04:58:57;102512.22;;;5.62;80.38
16595;BME280;8410;52.532;13.336;2023-02-15T05:01:25;102516.19;;;5.43;81.05
16595;BME280;8410;52.532;13.336;2023-02-15T05:03:52;102505.50;;;5.64;81.28
16595;BME280;8410;52.532;13.336;2023-02-15T05:06:20;102512.41;;;5.10;81.36
16595;BME280;8410;52.532;13.336;2023-02-15T05:08:47;102506.66;;;5.41;80.70
16595;BME280;8410;52.532;13.336;2023-02-15T05:11:17;102509.78;;;5.37;80.84
16595;BME280;8410;52.532;13.336;2023-02-15T05:13:45;102501.47;;;5.26;81.28
16595;BME280;8410;52.532;13.336;2023-02-15T05:16:12;102513.69;;;4.77;82.06
16595;BME280;8410;52.532;13.336;2023-02-15T05:18:40;102519.97;;;4.69;82.91
16595;BME280;8410;52.532;13.336;2023-02-15T05:21:07;102518.50;;;4.20;84.43
16595;BME280;8410;52.532;13.336;2023-02-15T05:23:35;102515.22;;;4.48;83.85
16595;BME280;8410;52.532;13.336;2023-02-15T05:26:02;102523.91;;;4.77;82.94
16595;BME280;8410;52.532;13.336;2023-02-15T05:28:49;102514.94;;;4.83;81.95
16595;BME280;8410;52.532;13.336;2023-02-15T05:31:17;102516.44;;;4.67;82.40
16595;BME280;8410;52.532;13.336;2023-02-15T05:33:46;102516.13;;;4.75;83.10
16595;BME280;8410;52.532;13.336;2023-02-15T05:36:13;102505.66;;;4.84;82.71
16595;BME280;8410;52.532;13.336;2023-02-15T05:38:41;102513.09;;;4.81;81.84
16595;BME280;8410;52.532;13.336;2023-02-15T05:41:09;102497.47;;;4.11;84.44
16595;BME280;8410;52.532;13.336;2023-02-15T05:43:38;102501.00;;;4.00;85.06
16595;BME280;8410;52.532;13.336;2023-02-15T05:46:08;102490.34;;;4.57;83.59
16595;BME280;8410;52.532;13.336;2023-02-15T05:48:36;102484.25;;;4.55;82.70
16595;BME280;8410;52.532;13.336;2023-02-15T05:51:06;102487.94;;;4.34;84.83
16595;BME280;8410;52.532;13.336;2023-02-15T05:53:36;102487.00;;;4.85;82.26
16595;BME280;8410;52.532;13.336;2023-02-15T05:56:04;102488.44;;;5.21;81.73
16595;BME280;8410;52.532;13.336;2023-02-15T05:58:33;102487.84;;;5.12;81.30
16595;BME280;8410;52.532;13.336;2023-02-15T06:01:08;102490.09;;;5.07;81.07
16595;BME280;8410;52.532;13.336;2023-02-15T06:03:36;102494.47;;;4.82;80.86
16595;BME280;8410;52.532;13.336;2023-02-15T06:06:04;102492.84;;;4.31;85.64
16595;BME280;8410;52.532;13.336;2023-02-15T06:08:32;102493.66;;;4.83;81.88
16595;BME280;8410;52.532;13.336;2023-02-15T06:11:00;102488.16;;;3.73;83.05
16595;BME280;8410;52.532;13.336;2023-02-15T06:13:28;102488.75;;;4.08;84.82
16595;BME280;8410;52.532;13.336;2023-02-15T06:15:56;102489.34;;;4.42;83.46
16595;BME280;8410;52.532;13.336;2023-02-15T06:18:25;102496.81;;;4.52;81.73
16595;BME280;8410;52.532;13.336;2023-02-15T06:20:53;102497.19;;;4.72;82.79
16595;BME280;8410;52.532;13.336;2023-02-15T06:23:20;102497.59;;;4.91;82.32
16595;BME280;8410;52.532;13.336;2023-02-15T06:25:47;102495.03;;;5.04;81.79
16595;BME280;8410;52.532;13.336;2023-02-15T06:28:15;102486.69;;;5.07;81.73
16595;BME280;8410;52.532;13.336;2023-02-15T06:30:42;102489.50;;;5.25;80.07
16595;BME280;8410;52.532;13.336;2023-02-15T06:33:10;102487.47;;;5.06;80.62
16595;BME280;8410;52.532;13.336;2023-02-15T06:35:39;102498.97;;;4.86;81.83
16595;BME280;8410;52.532;13.336;2023-02-15T06:38:06;102479.84;;;5.34;81.24
16595;BME280;8410;52.532;13.336;2023-02-15T06:40:34;102478.50;;;5.26;80.77
16595;BME280;8410;52.532;13.336;2023-02-15T06:43:01;102485.09;;;5.22;81.49
16595;BME280;8410;52.532;13.336;2023-02-15T06:45:28;102479.19;;;5.23;81.28
16595;BME280;8410;52.532;13.336;2023-02-15T06:47:56;102478.16;;;5.06;81.83
16595;BME280;8410;52.532;13.336;2023-02-15T06:50:23;102479.53;;;4.75;81.94
16595;BME280;8410;52.532;13.336;2023-02-15T06:52:56;102483.66;;;4.73;83.21
16595;BME280;8410;52.532;13.336;2023-02-15T06:55:24;102485.03;;;3.78;85.29
16595;BME280;8410;52.532;13.336;2023-02-15T06:57:51;102485.22;;;3.19;88.02
16595;BME280;8410;52.532;13.336;2023-02-15T07:00:19;102494.22;;;2.90;92.71
16595;BME280;8410;52.532;13.336;2023-02-15T07:02:53;102481.78;;;3.55;89.50
16595;BME280;8410;52.532;13.336;2023-02-15T07:05:22;102485.34;;;4.07;86.95
16595;BME280;8410;52.532;13.336;2023-02-15T07:07:49;102481.50;;;4.52;84.46
16595;BME280;8410;52.532;13.336;2023-02-15T07:10:18;102483.06;;;4.77;83.48
16595;BME280;8410;52.532;13.336;2023-02-15T07:12:45;102479.03;;;4.94;84.10
16595;BME280;8410;52.532;13.336;2023-02-15T07:15:14;102473.63;;;5.02;84.33
16595;BME280;8410;52.532;13.336;2023-02-15T07:17:42;102472.66;;;5.00;83.22
16595;BME280;8410;52.532;13.336;2023-02-15T07:20:12;102457.81;;;5.21;82.55
16595;BME280;8410;52.532;13.336;2023-02-15T07:22:40;102452.50;;;5.46;81.42
16595;BME280;8410;52.532;13.336;2023-02-15T07:25:09;102454.72;;;5.55;81.18
16595;BME280;8410;52.532;13.336;2023-02-15T07:27:38;102457.69;;;5.48;80.65
16595;BME280;8410;52.532;13.336;2023-02-15T07:30:07;102461.88;;;4.51;83.70
16595;BME280;8410;52.532;13.336;2023-02-15T07:32:35;102444.09;;;5.06;82.53
16595;BME280;8410;52.532;13.336;2023-02-15T07:35:23;102458.50;;;3.87;85.83
16595;BME280;8410;52.532;13.336;2023-02-15T07:37:51;102459.50;;;4.54;86.07
16595;BME280;8410;52.532;13.336;2023-02-15T07:40:19;102444.94;;;5.20;83.29
16595;BME280;8410;52.532;13.336;2023-02-15T07:42:51;102449.31;;;4.81;81.49
16595;BME280;8410;52.532;13.336;2023-02-15T07:45:21;102441.84;;;4.97;82.53
16595;BME280;8410;52.532;13.336;2023-02-15T07:47:48;102442.47;;;3.88;86.21
16595;BME280;8410;52.532;13.336;2023-02-15T07:50:16;102443.81;;;4.75;84.64
16595;BME280;8410;52.532;13.336;2023-02-15T07:52:44;102429.28;;;5.28;82.76
16595;BME280;8410;52.532;13.336;2023-02-15T07:55:11;102435.38;;;5.59;80.04
16595;BME280;8410;52.532;13.336;2023-02-15T07:57:42;102430.47;;;4.92;82.57
16595;BME280;8410;52.532;13.336;2023-02-15T08:02:47;102423.50;;;5.59;80.62
16595;BME280;8410;52.532;13.336;2023-02-15T08:05:15;102423.38;;;5.43;81.36
16595;BME280;8410;52.532;13.336;2023-02-15T08:07:44;102435.09;;;4.31;84.80
16595;BME280;8410;52.532;13.336;2023-02-15T08:10:12;102434.09;;;4.16;84.30
16595;BME280;8410;52.532;13.336;2023-02-15T08:12:59;102426.06;;;5.18;83.61
16595;BME280;8410;52.532;13.336;2023-02-15T08:15:26;102429.47;;;4.90;82.12
16595;BME280;8410;52.532;13.336;2023-02-15T08:17:55;102419.81;;;5.41;81.85
16595;BME280;8410;52.532;13.336;2023-02-15T08:20:23;102424.19;;;5.57;81.58
16595;BME280;8410;52.532;13.336;2023-02-15T08:22:50;102416.69;;;5.60;80.45
16595;BME280;8410;52.532;13.336;2023-02-15T08:25:17;102413.84;;;5.40;82.71
16595;BME280;8410;52.532;13.336;2023-02-15T08:27:45;102415.13;;;5.62;81.79
16595;BME280;8410;52.532;13.336;2023-02-15T08:30:13;102414.47;;;5.23;81.84
16595;BME280;8410;52.532;13.336;2023-02-15T08:32:41;102432.03;;;4.24;85.98
16595;BME280;8410;52.532;13.336;2023-02-15T08:35:10;102419.41;;;5.20;82.88
16595;BME280;8410;52.532;13.336;2023-02-15T08:37:37;102426.72;;;4.07;86.05
16595;BME280;8410;52.532;13.336;2023-02-15T08:40:06;102409.44;;;4.96;84.82
16595;BME280;8410;52.532;13.336;2023-02-15T08:42:33;102412.31;;;4.21;85.31
16595;BME280;8410;52.532;13.336;2023-02-15T08:45:01;102412.59;;;3.99;87.10
16595;BME280;8410;52.532;13.336;2023-02-15T08:47:28;102405.66;;;5.18;84.82
16595;BME280;8410;52.532;13.336;2023-02-15T08:49:56;102403.97;;;4.77;85.46
16595;BME280;8410;52.532;13.336;2023-02-15T08:52:25;102400.81;;;5.50;82.27
16595;BME280;8410;52.532;13.336;2023-02-15T08:54:52;102391.56;;;5.95;82.20
16595;BME280;8410;52.532;13.336;2023-02-15T08:57:20;102388.22;;;6.26;80.57
16595;BME280;8410;52.532;13.336;2023-02-15T08:59:47;102378.84;;;6.42;79.50
16595;BME280;8410;52.532;13.336;2023-02-15T09:02:17;102376.34;;;6.58;79.45
16595;BME280;8410;52.532;13.336;2023-02-15T09:04:44;102373.44;;;6.68;78.60
16595;BME280;8410;52.532;13.336;2023-02-15T09:07:11;102370.59;;;6.78;78.24
16595;BME280;8410;52.532;13.336;2023-02-15T09:09:40;102365.91;;;6.86;78.04
16595;BME280;8410;52.532;13.336;2023-02-15T09:12:08;102375.47;;;6.43;79.55
16595;BME280;8410;52.532;13.336;2023-02-15T09:14:35;102374.13;;;6.80;78.22
16595;BME280;8410;52.532;13.336;2023-02-15T09:17:03;102372.88;;;6.57;78.33
16595;BME280;8410;52.532;13.336;2023-02-15T09:19:30;102376.50;;;6.61;78.80
16595;BME280;8410;52.532;13.336;2023-02-15T09:21:59;102372.16;;;6.91;78.28
16595;BME280;8410;52.532;13.336;2023-02-15T09:24:32;102364.19;;;6.70;77.39
16595;BME280;8410;52.532;13.336;2023-02-15T09:27:01;102382.81;;;5.34;79.75
16595;BME280;8410;52.532;13.336;2023-02-15T09:29:28;102379.47;;;5.35;81.95
16595;BME280;8410;52.532;13.336;2023-02-15T09:31:56;102373.84;;;5.99;81.19
16595;BME280;8410;52.532;13.336;2023-02-15T09:34:23;102374.25;;;5.91;80.89
16595;BME280;8410;52.532;13.336;2023-02-15T09:36:51;102374.78;;;6.30;78.31
16595;BME280;8410;52.532;13.336;2023-02-15T09:39:21;102377.75;;;5.21;81.51
16595;BME280;8410;52.532;13.336;2023-02-15T09:42:09;102388.47;;;3.94;88.72
16595;BME280;8410;52.532;13.336;2023-02-15T09:44:59;102378.56;;;5.20;84.67
16595;BME280;8410;52.532;13.336;2023-02-15T09:47:42;102376.03;;;6.22;81.89
16595;BME280;8410;52.532;13.336;2023-02-15T09:50:17;102366.59;;;6.67;78.34
16595;BME280;8410;52.532;13.336;2023-02-15T09:52:58;102377.97;;;6.26;80.98
16595;BME280;8410;52.532;13.336;2023-02-15T09:55:42;102373.47;;;5.92;79.45
16595;BME280;8410;52.532;13.336;2023-02-15T09:58:20;102390.06;;;4.32;85.88
16595;BME280;8410;52.532;13.336;2023-02-15T10:00:59;102368.38;;;5.06;88.23
16595;BME280;8410;52.532;13.336;2023-02-15T10:03:39;102366.16;;;6.28;84.58
16595;BME280;8410;52.532;13.336;2023-02-15T10:06:22;102372.09;;;5.97;81.35
16595;BME280;8410;52.532;13.336;2023-02-15T10:09:02;102368.00;;;6.62;79.63
16595;BME280;8410;52.532;13.336;2023-02-15T10:11:39;102361.84;;;7.06;77.26
16595;BME280;8410;52.532;13.336;2023-02-15T10:14:33;102359.91;;;7.02;77.00
16595;BME280;8410;52.532;13.336;2023-02-15T10:17:11;102361.63;;;6.70;78.64
16595;BME280;8410;52.532;13.336;2023-02-15T10:19:47;102354.59;;;7.48;77.95
16595;BME280;8410;52.532;13.336;2023-02-15T10:22:28;102356.88;;;7.76;76.28
16595;BME280;8410;52.532;13.336;2023-02-15T10:25:19;102353.66;;;6.97;77.93
16595;BME280;8410;52.532;13.336;2023-02-15T10:27:51;102348.38;;;7.59;76.61
16595;BME280;8410;52.532;13.336;2023-02-15T10:30:23;102337.91;;;7.22;75.96
16595;BME280;8410;52.532;13.336;2023-02-15T10:32:59;102332.22;;;7.27;78.17
16595;BME280;8410;52.532;13.336;2023-02-15T10:35:35;102323.94;;;7.49;77.47
16595;BME280;8410;52.532;13.336;2023-02-15T10:38:18;102326.78;;;7.21;76.51
16595;BME280;8410;52.532;13.336;2023-02-15T10:40:56;102322.31;;;7.01;77.35
16595;BME280;8410;52.532;13.336;2023-02-15T10:43:41;102319.91;;;7.20;79.05
16595;BME280;8410;52.532;13.336;2023-02-15T10:46:23;102313.97;;;7.38;76.94
16595;BME280;8410;52.532;13.336;2023-02-15T10:49:05;102318.81;;;7.84;76.60
16595;BME280;8410;52.532;13.336;2023-02-15T10:51:40;102314.47;;;7.14;77.10
16595;BME280;8410;52.532;13.336;2023-02-15T10:54:19;102320.31;;;5.72;83.79
16595;BME280;8410;52.532;13.336;2023-02-15T10:56:55;102308.66;;;7.35;79.26
16595;BME280;8410;52.532;13.336;2023-02-15T10:59:38;102302.69;;;8.04;76.89
16595;BME280;8410;52.532;13.336;2023-02-15T11:02:13;102290.75;;;8.41;76.20
16595;BME280;8410;52.532;13.336;2023-02-15T11:04:56;102286.63;;;8.44;74.17
16595;BME280;8410;52.532;13.336;2023-02-15T11:07:32;102285.03;;;8.10;74.75
16595;BME280;8410;52.532;13.336;2023-02-15T11:10:06;102297.28;;;7.98;75.70
16595;BME280;8410;52.532;13.336;2023-02-15T11:12:38;102297.88;;;7.58;77.73
16595;BME280;8410;52.532;13.336;2023-02-15T11:15:15;102284.88;;;8.43;75.51
16595;BME280;8410;52.532;13.336;2023-02-15T11:17:50;102276.81;;;8.17;76.21
16595;BME280;8410;52.532;13.336;2023-02-15T11:20:24;102273.50;;;8.75;74.20
16595;BME280;8410;52.532;13.336;2023-02-15T11:22:53;102273.69;;;8.99;73.85
16595;BME280;8410;52.532;13.336;2023-02-15T11:25:24;102271.16;;;8.80;74.41
16595;BME280;8410;52.532;13.336;2023-02-15T11:27:53;102269.03;;;8.52;73.99
16595;BME280;8410;52.532;13.336;2023-02-15T11:30:24;102269.31;;;7.50;77.68
16595;BME280;8410;52.532;13.336;2023-02-15T11:32:56;102264.22;;;8.79;75.43
16595;BME280;8410;52.532;13.336;2023-02-15T11:35:28;102256.25;;;9.12;73.00
16595;BME280;8410;52.532;13.336;2023-02-15T11:38:01;102253.41;;;9.25;72.35
16595;BME280;8410;52.532;13.336;2023-02-15T11:40:33;102249.63;;;8.97;74.31
16595;BME280;8410;52.532;13.336;2023-02-15T11:43:06;102248.63;;;9.34;72.55
16595;BME280;8410;52.532;13.336;2023-02-15T11:45:40;102248.19;;;9.44;72.62
16595;BME280;8410;52.532;13.336;2023-02-15T11:48:11;102246.69;;;9.49;72.15
16595;BME280;8410;52.532;13.336;2023-02-15T11:50:39;102248.13;;;9.64;71.78
16595;BME280;8410;52.532;13.336;2023-02-15T11:53:11;102246.06;;;9.34;71.98
16595;BME280;8410;52.532;13.336;2023-02-15T11:55:41;102237.28;;;9.50;71.74
16595;BME280;8410;52.532;13.336;2023-02-15T11:58:20;102237.38;;;9.52;72.03
16595;BME280;8410;52.532;13.336;2023-02-15T12:00:50;102233.63;;;9.66;72.25
16595;BME280;8410;52.532;13.336;2023-02-15T12:03:29;102234.03;;;9.33;72.03
16595;BME280;8410;52.532;13.336;2023-02-15T12:06:02;102229.81;;;9.56;70.75
16595;BME280;8410;52.532;13.336;2023-02-15T12:08:37;102229.34;;;9.87;70.92
16595;BME280;8410;52.532;13.336;2023-02-15T12:11:08;102225.94;;;9.45;72.62
16595;BME280;8410;52.532;13.336;2023-02-15T12:13:54;102236.38;;;9.08;74.23
16595;BME280;8410;52.532;13.336;2023-02-15T12:16:21;102220.44;;;9.79;71.56
16595;BME280;8410;52.532;13.336;2023-02-15T12:18:52;102224.84;;;9.19;72.73
16595;BME280;8410;52.532;13.336;2023-02-15T12:21:26;102213.19;;;9.69;70.99
16595;BME280;8410;52.532;13.336;2023-02-15T12:23:56;102216.81;;;8.90;73.81
16595;BME280;8410;52.532;13.336;2023-02-15T12:26:25;102207.28;;;9.09;74.51
16595;BME280;8410;52.532;13.336;2023-02-15T12:28:56;102203.88;;;9.29;73.86
16595;BME280;8410;52.532;13.336;2023-02-15T12:31:31;102205.13;;;10.05;71.41
16595;BME280;8410;52.532;13.336;2023-02-15T12:34:02;102203.84;;;9.93;70.46
16595;BME280;8410;52.532;13.336;2023-02-15T12:36:33;102200.22;;;9.88;71.31
16595;BME280;8410;52.532;13.336;2023-02-15T12:39:21;102187.31;;;10.09;71.15
16595;BME280;8410;52.532;13.336;2023-02-15T12:42:04;102187.00;;;10.47;70.13
16595;BME280;8410;52.532;13.336;2023-02-15T12:44:34;102181.41;;;10.34;69.37
16595;BME280;8410;52.532;13.336;2023-02-15T12:47:05;102187.09;;;10.03;70.42
16595;BME280;8410;52.532;13.336;2023-02-15T12:49:35;102189.22;;;9.70;71.55
16595;BME280;8410;52.532;13.336;2023-02-15T12:52:04;102171.53;;;10.47;70.08
16595;BME280;8410;52.532;13.336;2023-02-15T12:54:38;102169.25;;;10.30;69.56
16595;BME280;8410;52.532;13.336;2023-02-15T12:57:20;102169.69;;;10.20;70.02
16595;BME280;8410;52.532;13.336;2023-02-15T12:59:50;102165.16;;;10.35;68.73
16595;BME280;8410;52.532;13.336;2023-02-15T13:02:22;102164.59;;;10.94;69.54
16595;BME280;8410;52.532;13.336;2023-02-15T13:04:52;102160.59;;;11.02;67.81
16595;BME280;8410;52.532;13.336;2023-02-15T13:07:21;102154.28;;;10.68;68.63
16595;BME280;8410;52.532;13.336;2023-02-15T13:09:49;102155.53;;;10.55;69.66
16595;BME280;8410;52.532;13.336;2023-02-15T13:16:09;102134.66;;;11.24;68.66
16595;BME280;8410;52.532;13.336;2023-02-15T13:18:40;102130.88;;;11.13;67.86
16595;BME280;8410;52.532;13.336;2023-02-15T13:21:14;102130.19;;;10.92;68.67
16595;BME280;8410;52.532;13.336;2023-02-15T13:23:45;102118.69;;;11.35;68.37
16595;BME280;8410;52.532;13.336;2023-02-15T13:26:18;102120.88;;;11.50;67.00
16595;BME280;8410;52.532;13.336;2023-02-15T13:28:48;102113.06;;;11.48;67.31
16595;BME280;8410;52.532;13.336;2023-02-15T13:31:18;102115.81;;;11.25;68.02